createdAt,value
2019-02-09T00:05:43.918Z,981.42
2019-02-09T00:15:43.368Z,981.25
2019-02-09T00:25:43.369Z,981.17
2019-02-09T00:35:43.300Z,981.30
2019-02-09T00:45:43.327Z,981.27
2019-02-09T00:55:43.309Z,981.17
2019-02-09T01:05:43.418Z,981.12
2019-02-09T01:15:43.395Z,981.32
2019-02-09T01:25:43.281Z,981.46
2019-02-09T01:35:44.127Z,981.68
2019-02-09T01:45:43.359Z,981.90
2019-02-09T01:55:43.298Z,981.95
2019-02-09T02:05:43.274Z,981.54
2019-02-09T02:15:43.271Z,981.11
2019-02-09T02:25:43.368Z,981.39
2019-02-09T02:35:45.355Z,981.54
2019-02-09T02:45:43.385Z,981.43
2019-02-09T02:55:43.418Z,981.77
2019-02-09T03:05:44.286Z,981.99
2019-02-09T03:15:45.770Z,981.79
2019-02-09T03:25:43.333Z,982.03
2019-02-09T03:35:43.235Z,981.84
2019-02-09T03:45:43.261Z,981.94
2019-02-09T03:55:43.379Z,982.09
2019-02-09T04:05:43.269Z,982.27
2019-02-09T04:15:43.326Z,982.46
2019-02-09T04:25:43.295Z,982.68
2019-02-09T04:35:43.249Z,982.86
2019-02-09T04:45:43.311Z,982.87
2019-02-09T04:55:43.326Z,982.88
2019-02-09T05:05:43.309Z,982.87
2019-02-09T05:15:43.295Z,982.85
2019-02-09T05:25:43.255Z,983.26
2019-02-09T05:35:44.131Z,983.50
2019-02-09T05:45:43.267Z,983.57
2019-02-09T05:55:43.322Z,983.64
2019-02-09T06:05:43.207Z,983.68
2019-02-09T06:15:44.078Z,983.75
2019-02-09T06:25:43.360Z,983.82
2019-02-09T06:35:43.266Z,983.86
2019-02-09T06:45:43.268Z,983.89
2019-02-09T06:55:43.286Z,984.23
2019-02-09T07:05:43.190Z,984.35
2019-02-09T07:15:43.324Z,984.48
2019-02-09T07:25:43.216Z,984.97
2019-02-09T07:35:43.897Z,985.07
2019-02-09T07:45:43.170Z,985.45
2019-02-09T07:55:43.266Z,985.55
2019-02-09T08:05:43.284Z,985.76
2019-02-09T08:15:43.188Z,985.58
2019-02-09T08:25:43.249Z,985.66
2019-02-09T08:35:43.279Z,985.85
2019-02-09T08:45:43.917Z,986.15
2019-02-09T08:55:43.254Z,986.28
2019-02-09T09:05:43.263Z,986.22
2019-02-09T09:15:43.226Z,986.41
2019-02-09T09:25:43.402Z,986.28
2019-02-09T09:35:43.165Z,986.40
2019-02-09T09:45:43.227Z,986.53
2019-02-09T09:55:43.395Z,986.70
2019-02-09T10:05:43.195Z,986.72
2019-02-09T10:15:43.196Z,986.67
2019-02-09T10:25:43.289Z,987.00
2019-02-09T10:35:43.228Z,987.06
2019-02-09T10:45:43.214Z,986.66
2019-02-09T10:55:43.212Z,986.80
2019-02-09T11:05:43.986Z,986.79
2019-02-09T11:15:43.183Z,987.13
2019-02-09T11:25:43.241Z,986.86
2019-02-09T11:35:43.226Z,986.56
2019-02-09T11:45:43.191Z,986.91
2019-02-09T11:55:44.155Z,986.71
2019-02-09T12:05:43.197Z,986.84
2019-02-09T12:15:43.133Z,987.26
2019-02-09T12:25:44.157Z,987.20
2019-02-09T12:35:43.925Z,987.04
2019-02-09T12:45:43.187Z,986.88
2019-02-09T12:55:43.237Z,986.98
2019-02-09T13:05:43.175Z,986.98
2019-02-09T13:15:44.190Z,986.78
2019-02-09T13:25:43.296Z,987.10
2019-02-09T13:35:43.147Z,987.12
2019-02-09T13:45:43.183Z,987.20
2019-02-09T13:55:43.152Z,987.23
2019-02-09T14:05:43.151Z,987.54
2019-02-09T14:15:43.196Z,987.58
2019-02-09T14:25:43.139Z,987.63
2019-02-09T14:35:43.101Z,987.78
2019-02-09T14:45:43.148Z,988.04
2019-02-09T14:55:43.137Z,987.85
2019-02-09T15:05:43.318Z,988.34
2019-02-09T15:15:43.119Z,987.95
2019-02-09T15:25:43.128Z,987.91
2019-02-09T15:35:43.196Z,988.06
2019-02-09T15:45:43.235Z,988.02
2019-02-09T15:55:43.094Z,987.76
2019-02-09T16:05:43.225Z,988.14
2019-02-09T16:15:43.149Z,988.22
2019-02-09T16:25:43.159Z,988.21
2019-02-09T16:35:43.160Z,988.35
2019-02-09T16:45:43.109Z,988.32
2019-02-09T16:55:43.174Z,988.34
2019-02-09T17:05:43.184Z,988.56
2019-02-09T17:15:43.178Z,988.57
2019-02-09T17:25:43.152Z,988.91
2019-02-09T17:35:43.146Z,989.02
2019-02-09T17:45:43.119Z,989.07
2019-02-09T17:55:43.100Z,989.17
2019-02-09T18:05:43.160Z,989.26
2019-02-09T18:15:43.824Z,989.47
2019-02-09T18:25:43.136Z,989.30
2019-02-09T18:35:43.085Z,989.30
2019-02-09T18:45:43.060Z,989.30
2019-02-09T18:55:43.134Z,989.30
2019-02-09T19:05:43.120Z,989.12
2019-02-09T19:15:44.992Z,989.20
2019-02-09T19:25:43.142Z,989.14
2019-02-09T19:35:43.225Z,988.91
2019-02-09T19:45:43.224Z,988.91
2019-02-09T19:55:43.826Z,988.83
2019-02-09T20:05:43.352Z,988.69
2019-02-09T20:15:44.023Z,988.50
2019-02-09T20:25:43.111Z,988.54
2019-02-09T20:35:43.179Z,988.40
2019-02-09T20:45:44.594Z,988.46
2019-02-09T20:55:43.111Z,988.43
2019-02-09T21:05:43.189Z,988.41
2019-02-09T21:15:43.122Z,988.43
2019-02-09T21:25:43.141Z,988.45
2019-02-09T21:35:44.275Z,988.48
2019-02-09T21:45:45.221Z,988.35
2019-02-09T21:55:43.132Z,988.24
2019-02-09T22:05:43.199Z,988.12
2019-02-09T22:15:43.161Z,987.98
2019-02-09T22:25:44.016Z,987.89
2019-02-09T22:35:43.083Z,987.70
2019-02-09T22:45:43.019Z,987.59
2019-02-09T22:55:43.421Z,987.48
2019-02-09T23:05:43.036Z,987.27
2019-02-09T23:15:43.163Z,987.03
2019-02-09T23:25:43.066Z,986.74
2019-02-09T23:35:43.066Z,986.61
2019-02-09T23:45:43.094Z,986.32
2019-02-09T23:55:43.106Z,986.17
